sensor_id;sensor_type;location;lat;lon;timestamp;P1;durP1;ratioP1;P2;durP2;ratioP2
65049;SDS011;52090;51.224;-2.328;2023-01-29T00:03:01;27.45;;;18.23;;
65049;SDS011;52090;51.224;-2.328;2023-01-29T00:06:43;26.55;;;16.58;;
65049;SDS011;52090;51.224;-2.328;2023-01-29T00:10:26;27.88;;;18.17;;
65049;SDS011;52090;51.224;-2.328;2023-01-29T00:14:08;31.57;;;18.57;;
65049;SDS011;52090;51.224;-2.328;2023-01-29T00:17:53;27.50;;;19.60;;
65049;SDS011;52090;51.224;-2.328;2023-01-29T00:21:35;28.15;;;18.20;;
65049;SDS011;52090;51.224;-2.328;2023-01-29T00:25:17;27.33;;;16.50;;
65049;SDS011;52090;51.224;-2.328;2023-01-29T00:28:59;25.52;;;17.30;;
65049;SDS011;52090;51.224;-2.328;2023-01-29T00:32:42;30.23;;;17.58;;
65049;SDS011;52090;51.224;-2.328;2023-01-29T00:36:24;27.08;;;17.70;;
65049;SDS011;52090;51.224;-2.328;2023-01-29T00:40:07;27.00;;;17.42;;
65049;SDS011;52090;51.224;-2.328;2023-01-29T00:43:50;27.98;;;17.63;;
65049;SDS011;52090;51.224;-2.328;2023-01-29T00:47:51;26.73;;;16.42;;
65049;SDS011;52090;51.224;-2.328;2023-01-29T00:51:33;28.33;;;17.42;;
65049;SDS011;52090;51.224;-2.328;2023-01-29T00:55:16;25.23;;;15.68;;
65049;SDS011;52090;51.224;-2.328;2023-01-29T00:58:58;29.45;;;20.88;;
65049;SDS011;52090;51.224;-2.328;2023-01-29T01:02:40;27.83;;;19.95;;
65049;SDS011;52090;51.224;-2.328;2023-01-29T01:06:41;24.80;;;16.42;;
65049;SDS011;52090;51.224;-2.328;2023-01-29T01:10:28;25.25;;;15.73;;
65049;SDS011;52090;51.224;-2.328;2023-01-29T01:14:11;30.10;;;18.65;;
65049;SDS011;52090;51.224;-2.328;2023-01-29T01:17:54;28.27;;;18.27;;
65049;SDS011;52090;51.224;-2.328;2023-01-29T01:21:38;26.48;;;17.05;;
65049;SDS011;52090;51.224;-2.328;2023-01-29T01:25:21;25.42;;;15.95;;
65049;SDS011;52090;51.224;-2.328;2023-01-29T01:29:07;22.63;;;15.50;;
65049;SDS011;52090;51.224;-2.328;2023-01-29T01:32:49;26.17;;;16.55;;
65049;SDS011;52090;51.224;-2.328;2023-01-29T01:36:31;28.08;;;16.77;;
65049;SDS011;52090;51.224;-2.328;2023-01-29T01:40:14;27.67;;;17.63;;
65049;SDS011;52090;51.224;-2.328;2023-01-29T01:44:00;28.15;;;17.73;;
65049;SDS011;52090;51.224;-2.328;2023-01-29T01:47:48;26.65;;;18.50;;
65049;SDS011;52090;51.224;-2.328;2023-01-29T01:51:39;27.05;;;17.23;;
65049;SDS011;52090;51.224;-2.328;2023-01-29T01:55:25;33.25;;;21.23;;
65049;SDS011;52090;51.224;-2.328;2023-01-29T01:59:11;28.30;;;18.17;;
65049;SDS011;52090;51.224;-2.328;2023-01-29T02:02:57;26.55;;;17.25;;
65049;SDS011;52090;51.224;-2.328;2023-01-29T02:07:05;25.92;;;16.33;;
65049;SDS011;52090;51.224;-2.328;2023-01-29T02:11:08;28.67;;;17.65;;
65049;SDS011;52090;51.224;-2.328;2023-01-29T02:14:50;29.02;;;17.98;;
65049;SDS011;52090;51.224;-2.328;2023-01-29T02:18:35;22.17;;;15.13;;
65049;SDS011;52090;51.224;-2.328;2023-01-29T02:30:22;22.23;;;14.98;;
65049;SDS011;52090;51.224;-2.328;2023-01-29T02:38:57;29.58;;;16.92;;
65049;SDS011;52090;51.224;-2.328;2023-01-29T02:42:46;25.17;;;16.35;;
65049;SDS011;52090;51.224;-2.328;2023-01-29T02:46:44;24.23;;;16.83;;
65049;SDS011;52090;51.224;-2.328;2023-01-29T03:02:19;21.25;;;15.23;;
65049;SDS011;52090;51.224;-2.328;2023-01-29T03:06:13;23.77;;;15.45;;
65049;SDS011;52090;51.224;-2.328;2023-01-29T03:10:00;22.67;;;13.95;;
65049;SDS011;52090;51.224;-2.328;2023-01-29T03:13:48;22.48;;;14.77;;
65049;SDS011;52090;51.224;-2.328;2023-01-29T03:17:53;25.88;;;15.52;;
65049;SDS011;52090;51.224;-2.328;2023-01-29T03:21:45;22.10;;;14.85;;
65049;SDS011;52090;51.224;-2.328;2023-01-29T03:25:31;21.30;;;14.23;;
65049;SDS011;52090;51.224;-2.328;2023-01-29T03:29:34;24.10;;;13.85;;
65049;SDS011;52090;51.224;-2.328;2023-01-29T03:37:47;24.25;;;14.85;;
65049;SDS011;52090;51.224;-2.328;2023-01-29T03:41:33;21.10;;;14.02;;
65049;SDS011;52090;51.224;-2.328;2023-01-29T03:49:10;20.45;;;13.35;;
65049;SDS011;52090;51.224;-2.328;2023-01-29T03:53:22;22.30;;;13.02;;
65049;SDS011;52090;51.224;-2.328;2023-01-29T04:01:24;25.25;;;14.43;;
65049;SDS011;52090;51.224;-2.328;2023-01-29T04:05:17;22.03;;;14.53;;
65049;SDS011;52090;51.224;-2.328;2023-01-29T04:12:56;20.85;;;13.13;;
65049;SDS011;52090;51.224;-2.328;2023-01-29T04:16:43;25.00;;;15.20;;
65049;SDS011;52090;51.224;-2.328;2023-01-29T04:20:31;21.98;;;14.15;;
65049;SDS011;52090;51.224;-2.328;2023-01-29T04:24:13;22.40;;;13.77;;
65049;SDS011;52090;51.224;-2.328;2023-01-29T04:39:55;21.02;;;13.77;;
65049;SDS011;52090;51.224;-2.328;2023-01-29T04:44:17;19.75;;;12.38;;
65049;SDS011;52090;51.224;-2.328;2023-01-29T04:48:20;19.60;;;12.30;;
65049;SDS011;52090;51.224;-2.328;2023-01-29T04:52:20;19.92;;;12.77;;
65049;SDS011;52090;51.224;-2.328;2023-01-29T04:56:18;22.38;;;13.73;;
65049;SDS011;52090;51.224;-2.328;2023-01-29T05:00:05;25.60;;;13.05;;
65049;SDS011;52090;51.224;-2.328;2023-01-29T05:04:01;21.08;;;13.88;;
65049;SDS011;52090;51.224;-2.328;2023-01-29T05:07:47;20.30;;;11.85;;
65049;SDS011;52090;51.224;-2.328;2023-01-29T05:11:30;19.27;;;13.40;;
65049;SDS011;52090;51.224;-2.328;2023-01-29T05:15:16;20.80;;;12.38;;
65049;SDS011;52090;51.224;-2.328;2023-01-29T05:19:03;21.08;;;13.23;;
65049;SDS011;52090;51.224;-2.328;2023-01-29T05:22:44;19.92;;;12.48;;
65049;SDS011;52090;51.224;-2.328;2023-01-29T05:26:28;17.17;;;11.65;;
65049;SDS011;52090;51.224;-2.328;2023-01-29T05:30:28;20.67;;;13.27;;
65049;SDS011;52090;51.224;-2.328;2023-01-29T05:34:11;28.83;;;17.35;;
65049;SDS011;52090;51.224;-2.328;2023-01-29T05:37:56;24.73;;;15.13;;
65049;SDS011;52090;51.224;-2.328;2023-01-29T05:41:38;21.58;;;14.10;;
65049;SDS011;52090;51.224;-2.328;2023-01-29T05:45:20;23.23;;;14.77;;
65049;SDS011;52090;51.224;-2.328;2023-01-29T05:49:02;21.40;;;14.27;;
65049;SDS011;52090;51.224;-2.328;2023-01-29T05:52:44;19.13;;;13.00;;
65049;SDS011;52090;51.224;-2.328;2023-01-29T05:56:26;19.50;;;12.48;;
65049;SDS011;52090;51.224;-2.328;2023-01-29T06:00:08;26.63;;;15.57;;
65049;SDS011;52090;51.224;-2.328;2023-01-29T06:03:50;23.40;;;14.38;;
65049;SDS011;52090;51.224;-2.328;2023-01-29T06:07:32;28.70;;;15.57;;
65049;SDS011;52090;51.224;-2.328;2023-01-29T06:11:14;21.58;;;11.85;;
65049;SDS011;52090;51.224;-2.328;2023-01-29T06:14:58;20.67;;;12.88;;
65049;SDS011;52090;51.224;-2.328;2023-01-29T06:18:40;19.23;;;11.60;;
65049;SDS011;52090;51.224;-2.328;2023-01-29T06:22:22;19.05;;;11.75;;
65049;SDS011;52090;51.224;-2.328;2023-01-29T06:26:05;23.88;;;13.27;;
65049;SDS011;52090;51.224;-2.328;2023-01-29T06:29:48;20.65;;;11.77;;
65049;SDS011;52090;51.224;-2.328;2023-01-29T06:33:30;19.75;;;11.70;;
65049;SDS011;52090;51.224;-2.328;2023-01-29T06:37:12;16.95;;;11.27;;
65049;SDS011;52090;51.224;-2.328;2023-01-29T06:40:54;19.02;;;11.65;;
65049;SDS011;52090;51.224;-2.328;2023-01-29T06:44:36;17.20;;;11.20;;
65049;SDS011;52090;51.224;-2.328;2023-01-29T06:48:18;18.67;;;11.43;;
65049;SDS011;52090;51.224;-2.328;2023-01-29T06:52:00;18.95;;;10.73;;
65049;SDS011;52090;51.224;-2.328;2023-01-29T06:55:41;19.50;;;12.05;;
65049;SDS011;52090;51.224;-2.328;2023-01-29T06:59:24;17.57;;;10.67;;
65049;SDS011;52090;51.224;-2.328;2023-01-29T07:03:08;17.13;;;10.20;;
65049;SDS011;52090;51.224;-2.328;2023-01-29T07:06:50;20.17;;;11.80;;
65049;SDS011;52090;51.224;-2.328;2023-01-29T07:10:32;20.60;;;12.77;;
65049;SDS011;52090;51.224;-2.328;2023-01-29T07:14:14;18.80;;;11.80;;
65049;SDS011;52090;51.224;-2.328;2023-01-29T07:17:56;21.27;;;12.38;;
65049;SDS011;52090;51.224;-2.328;2023-01-29T07:21:42;15.43;;;10.07;;
65049;SDS011;52090;51.224;-2.328;2023-01-29T07:25:24;18.40;;;12.60;;
65049;SDS011;52090;51.224;-2.328;2023-01-29T07:29:06;18.48;;;11.32;;
65049;SDS011;52090;51.224;-2.328;2023-01-29T07:32:48;19.17;;;12.20;;
65049;SDS011;52090;51.224;-2.328;2023-01-29T07:36:30;21.88;;;13.20;;
65049;SDS011;52090;51.224;-2.328;2023-01-29T07:40:11;20.45;;;11.45;;
65049;SDS011;52090;51.224;-2.328;2023-01-29T07:43:53;18.30;;;11.18;;
65049;SDS011;52090;51.224;-2.328;2023-01-29T07:47:35;17.42;;;11.20;;
65049;SDS011;52090;51.224;-2.328;2023-01-29T07:51:17;18.17;;;12.35;;
65049;SDS011;52090;51.224;-2.328;2023-01-29T07:55:01;19.02;;;11.77;;
65049;SDS011;52090;51.224;-2.328;2023-01-29T07:58:43;19.35;;;12.23;;
65049;SDS011;52090;51.224;-2.328;2023-01-29T08:02:25;18.83;;;10.80;;
65049;SDS011;52090;51.224;-2.328;2023-01-29T08:06:07;16.35;;;10.68;;
65049;SDS011;52090;51.224;-2.328;2023-01-29T08:09:49;15.15;;;9.80;;
65049;SDS011;52090;51.224;-2.328;2023-01-29T08:13:31;14.48;;;9.90;;
65049;SDS011;52090;51.224;-2.328;2023-01-29T08:17:13;16.90;;;9.82;;
65049;SDS011;52090;51.224;-2.328;2023-01-29T08:20:58;13.73;;;9.45;;
65049;SDS011;52090;51.224;-2.328;2023-01-29T08:24:41;14.07;;;9.27;;
65049;SDS011;52090;51.224;-2.328;2023-01-29T08:28:40;13.57;;;9.32;;
65049;SDS011;52090;51.224;-2.328;2023-01-29T08:32:21;14.82;;;8.70;;
65049;SDS011;52090;51.224;-2.328;2023-01-29T08:36:03;11.70;;;7.60;;
65049;SDS011;52090;51.224;-2.328;2023-01-29T08:39:45;14.23;;;8.23;;
65049;SDS011;52090;51.224;-2.328;2023-01-29T08:43:27;10.98;;;7.78;;
65049;SDS011;52090;51.224;-2.328;2023-01-29T08:47:09;14.45;;;9.63;;
65049;SDS011;52090;51.224;-2.328;2023-01-29T08:50:51;12.98;;;8.38;;
65049;SDS011;52090;51.224;-2.328;2023-01-29T08:54:32;12.23;;;7.93;;
65049;SDS011;52090;51.224;-2.328;2023-01-29T08:58:14;16.58;;;10.23;;
65049;SDS011;52090;51.224;-2.328;2023-01-29T09:01:56;11.80;;;7.90;;
65049;SDS011;52090;51.224;-2.328;2023-01-29T09:05:38;9.82;;;7.25;;
65049;SDS011;52090;51.224;-2.328;2023-01-29T09:09:20;10.27;;;7.30;;
65049;SDS011;52090;51.224;-2.328;2023-01-29T09:13:03;10.25;;;6.50;;
65049;SDS011;52090;51.224;-2.328;2023-01-29T09:16:45;8.73;;;6.28;;
65049;SDS011;52090;51.224;-2.328;2023-01-29T09:20:26;8.38;;;5.80;;
65049;SDS011;52090;51.224;-2.328;2023-01-29T09:24:08;9.35;;;7.05;;
65049;SDS011;52090;51.224;-2.328;2023-01-29T09:27:50;8.20;;;5.50;;
65049;SDS011;52090;51.224;-2.328;2023-01-29T09:35:16;9.35;;;6.40;;
65049;SDS011;52090;51.224;-2.328;2023-01-29T09:38:58;7.20;;;5.30;;
65049;SDS011;52090;51.224;-2.328;2023-01-29T09:42:41;13.48;;;7.45;;
65049;SDS011;52090;51.224;-2.328;2023-01-29T09:46:37;10.10;;;6.25;;
65049;SDS011;52090;51.224;-2.328;2023-01-29T09:58:12;7.13;;;5.18;;
65049;SDS011;52090;51.224;-2.328;2023-01-29T10:13:57;7.00;;;4.85;;
65049;SDS011;52090;51.224;-2.328;2023-01-29T10:25:34;12.02;;;5.57;;
65049;SDS011;52090;51.224;-2.328;2023-01-29T10:29:20;7.25;;;4.80;;
65049;SDS011;52090;51.224;-2.328;2023-01-29T10:33:03;7.68;;;4.55;;
65049;SDS011;52090;51.224;-2.328;2023-01-29T10:36:47;6.32;;;4.53;;
65049;SDS011;52090;51.224;-2.328;2023-01-29T10:57:09;6.28;;;3.97;;
65049;SDS011;52090;51.224;-2.328;2023-01-29T11:00:53;6.10;;;4.55;;
65049;SDS011;52090;51.224;-2.328;2023-01-29T11:04:35;5.90;;;4.38;;
65049;SDS011;52090;51.224;-2.328;2023-01-29T11:08:20;18.35;;;10.57;;
65049;SDS011;52090;51.224;-2.328;2023-01-29T11:12:10;11.45;;;6.57;;
65049;SDS011;52090;51.224;-2.328;2023-01-29T11:15:57;6.38;;;4.50;;
65049;SDS011;52090;51.224;-2.328;2023-01-29T11:19:40;10.55;;;7.00;;
65049;SDS011;52090;51.224;-2.328;2023-01-29T11:23:26;14.45;;;5.70;;
65049;SDS011;52090;51.224;-2.328;2023-01-29T11:31:03;5.35;;;3.78;;
65049;SDS011;52090;51.224;-2.328;2023-01-29T11:35:16;5.50;;;4.53;;
65049;SDS011;52090;51.224;-2.328;2023-01-29T11:39:14;8.38;;;6.50;;
65049;SDS011;52090;51.224;-2.328;2023-01-29T11:47:18;6.85;;;4.50;;
65049;SDS011;52090;51.224;-2.328;2023-01-29T11:51:04;8.73;;;5.72;;
65049;SDS011;52090;51.224;-2.328;2023-01-29T11:54:52;10.25;;;5.63;;
65049;SDS011;52090;51.224;-2.328;2023-01-29T11:58:44;6.30;;;4.68;;
65049;SDS011;52090;51.224;-2.328;2023-01-29T12:02:36;5.53;;;4.25;;
65049;SDS011;52090;51.224;-2.328;2023-01-29T12:06:33;6.60;;;4.22;;
65049;SDS011;52090;51.224;-2.328;2023-01-29T12:10:36;5.40;;;3.83;;
65049;SDS011;52090;51.224;-2.328;2023-01-29T12:14:26;5.97;;;3.80;;
65049;SDS011;52090;51.224;-2.328;2023-01-29T12:18:22;4.40;;;3.08;;
65049;SDS011;52090;51.224;-2.328;2023-01-29T12:22:16;5.30;;;3.03;;
65049;SDS011;52090;51.224;-2.328;2023-01-29T12:26:05;5.32;;;3.15;;
65049;SDS011;52090;51.224;-2.328;2023-01-29T12:30:04;7.28;;;3.80;;
65049;SDS011;52090;51.224;-2.328;2023-01-29T12:42:12;4.75;;;3.05;;
65049;SDS011;52090;51.224;-2.328;2023-01-29T12:45:59;4.30;;;3.05;;
65049;SDS011;52090;51.224;-2.328;2023-01-29T12:49:42;4.45;;;3.35;;
65049;SDS011;52090;51.224;-2.328;2023-01-29T12:53:30;4.45;;;3.03;;
65049;SDS011;52090;51.224;-2.328;2023-01-29T13:01:03;3.40;;;2.20;;
65049;SDS011;52090;51.224;-2.328;2023-01-29T13:09:14;3.97;;;2.10;;
65049;SDS011;52090;51.224;-2.328;2023-01-29T13:13:02;2.40;;;1.80;;
65049;SDS011;52090;51.224;-2.328;2023-01-29T13:16:56;3.30;;;1.75;;
65049;SDS011;52090;51.224;-2.328;2023-01-29T13:20:47;3.00;;;1.77;;
65049;SDS011;52090;51.224;-2.328;2023-01-29T13:24:32;3.25;;;1.75;;
65049;SDS011;52090;51.224;-2.328;2023-01-29T13:28:22;5.75;;;2.55;;
65049;SDS011;52090;51.224;-2.328;2023-01-29T13:32:06;4.30;;;3.50;;
65049;SDS011;52090;51.224;-2.328;2023-01-29T13:35:56;2.28;;;1.60;;
65049;SDS011;52090;51.224;-2.328;2023-01-29T13:39:39;2.45;;;1.75;;
65049;SDS011;52090;51.224;-2.328;2023-01-29T13:43:29;2.85;;;1.58;;
65049;SDS011;52090;51.224;-2.328;2023-01-29T13:47:22;2.67;;;1.80;;
65049;SDS011;52090;51.224;-2.328;2023-01-29T13:51:11;1.73;;;1.30;;
65049;SDS011;52090;51.224;-2.328;2023-01-29T13:55:07;2.40;;;1.70;;
65049;SDS011;52090;51.224;-2.328;2023-01-29T14:02:42;2.50;;;1.97;;
65049;SDS011;52090;51.224;-2.328;2023-01-29T14:06:37;3.17;;;1.85;;
65049;SDS011;52090;51.224;-2.328;2023-01-29T14:10:22;3.65;;;2.45;;
65049;SDS011;52090;51.224;-2.328;2023-01-29T14:14:49;4.10;;;2.45;;
65049;SDS011;52090;51.224;-2.328;2023-01-29T14:18:28;3.30;;;2.22;;
65049;SDS011;52090;51.224;-2.328;2023-01-29T14:22:22;3.80;;;2.25;;
65049;SDS011;52090;51.224;-2.328;2023-01-29T14:30:19;2.50;;;1.90;;
65049;SDS011;52090;51.224;-2.328;2023-01-29T14:34:03;2.70;;;1.95;;
65049;SDS011;52090;51.224;-2.328;2023-01-29T14:37:52;2.40;;;1.73;;
65049;SDS011;52090;51.224;-2.328;2023-01-29T14:41:38;2.90;;;2.00;;
65049;SDS011;52090;51.224;-2.328;2023-01-29T14:45:33;2.20;;;1.60;;
65049;SDS011;52090;51.224;-2.328;2023-01-29T14:57:28;4.47;;;3.35;;
65049;SDS011;52090;51.224;-2.328;2023-01-29T15:13:02;5.25;;;3.78;;
65049;SDS011;52090;51.224;-2.328;2023-01-29T15:21:17;3.97;;;2.22;;
65049;SDS011;52090;51.224;-2.328;2023-01-29T15:28:54;4.25;;;2.60;;
65049;SDS011;52090;51.224;-2.328;2023-01-29T15:32:44;4.75;;;3.05;;
65049;SDS011;52090;51.224;-2.328;2023-01-29T15:40:13;3.80;;;2.05;;
65049;SDS011;52090;51.224;-2.328;2023-01-29T15:43:56;3.90;;;2.63;;
65049;SDS011;52090;51.224;-2.328;2023-01-29T15:47:39;4.68;;;3.00;;
65049;SDS011;52090;51.224;-2.328;2023-01-29T15:51:23;3.57;;;2.93;;
65049;SDS011;52090;51.224;-2.328;2023-01-29T15:55:06;5.15;;;3.45;;
65049;SDS011;52090;51.224;-2.328;2023-01-29T15:58:52;3.00;;;2.47;;
65049;SDS011;52090;51.224;-2.328;2023-01-29T16:02:38;3.65;;;2.70;;
65049;SDS011;52090;51.224;-2.328;2023-01-29T16:06:23;4.43;;;2.78;;
65049;SDS011;52090;51.224;-2.328;2023-01-29T16:10:06;4.65;;;3.00;;
65049;SDS011;52090;51.224;-2.328;2023-01-29T16:13:54;7.60;;;2.90;;
65049;SDS011;52090;51.224;-2.328;2023-01-29T16:17:38;5.22;;;3.25;;
65049;SDS011;52090;51.224;-2.328;2023-01-29T16:21:34;4.60;;;2.90;;
65049;SDS011;52090;51.224;-2.328;2023-01-29T16:25:20;4.68;;;3.22;;
65049;SDS011;52090;51.224;-2.328;2023-01-29T16:29:13;4.25;;;3.15;;
65049;SDS011;52090;51.224;-2.328;2023-01-29T16:33:05;6.30;;;2.90;;
65049;SDS011;52090;51.224;-2.328;2023-01-29T16:36:52;4.78;;;3.20;;
65049;SDS011;52090;51.224;-2.328;2023-01-29T16:40:35;4.50;;;3.17;;
65049;SDS011;52090;51.224;-2.328;2023-01-29T16:48:01;4.97;;;2.70;;
65049;SDS011;52090;51.224;-2.328;2023-01-29T16:52:17;5.13;;;2.90;;
65049;SDS011;52090;51.224;-2.328;2023-01-29T16:56:03;4.40;;;2.70;;
65049;SDS011;52090;51.224;-2.328;2023-01-29T16:59:48;4.15;;;2.83;;
65049;SDS011;52090;51.224;-2.328;2023-01-29T17:03:34;6.28;;;3.45;;
65049;SDS011;52090;51.224;-2.328;2023-01-29T17:11:02;5.85;;;4.30;;
65049;SDS011;52090;51.224;-2.328;2023-01-29T17:14:51;5.97;;;4.22;;
65049;SDS011;52090;51.224;-2.328;2023-01-29T17:18:40;8.93;;;6.55;;
65049;SDS011;52090;51.224;-2.328;2023-01-29T17:22:22;34.50;;;22.90;;
65049;SDS011;52090;51.224;-2.328;2023-01-29T17:26:04;9.02;;;7.15;;
65049;SDS011;52090;51.224;-2.328;2023-01-29T17:29:48;32.38;;;27.08;;
65049;SDS011;52090;51.224;-2.328;2023-01-29T17:33:33;11.50;;;8.85;;
65049;SDS011;52090;51.224;-2.328;2023-01-29T17:37:17;35.03;;;28.58;;
65049;SDS011;52090;51.224;-2.328;2023-01-29T17:41:05;25.15;;;22.70;;
65049;SDS011;52090;51.224;-2.328;2023-01-29T17:45:01;9.65;;;7.40;;
65049;SDS011;52090;51.224;-2.328;2023-01-29T17:48:43;8.07;;;5.25;;
65049;SDS011;52090;51.224;-2.328;2023-01-29T17:52:26;7.07;;;4.35;;
65049;SDS011;52090;51.224;-2.328;2023-01-29T17:56:13;6.50;;;4.38;;
65049;SDS011;52090;51.224;-2.328;2023-01-29T17:59:55;8.13;;;5.25;;
65049;SDS011;52090;51.224;-2.328;2023-01-29T18:03:36;8.55;;;5.68;;
65049;SDS011;52090;51.224;-2.328;2023-01-29T18:07:18;12.15;;;10.52;;
65049;SDS011;52090;51.224;-2.328;2023-01-29T18:11:00;15.55;;;13.65;;
65049;SDS011;52090;51.224;-2.328;2023-01-29T18:14:42;30.05;;;24.25;;
65049;SDS011;52090;51.224;-2.328;2023-01-29T18:18:24;18.38;;;13.32;;
65049;SDS011;52090;51.224;-2.328;2023-01-29T18:22:05;29.35;;;26.23;;
65049;SDS011;52090;51.224;-2.328;2023-01-29T18:25:47;12.40;;;9.07;;
65049;SDS011;52090;51.224;-2.328;2023-01-29T18:29:32;10.93;;;6.38;;
65049;SDS011;52090;51.224;-2.328;2023-01-29T18:33:14;10.85;;;6.25;;
65049;SDS011;52090;51.224;-2.328;2023-01-29T18:36:57;11.30;;;7.30;;
65049;SDS011;52090;51.224;-2.328;2023-01-29T18:40:40;6.60;;;4.63;;
65049;SDS011;52090;51.224;-2.328;2023-01-29T18:44:22;7.85;;;4.43;;
65049;SDS011;52090;51.224;-2.328;2023-01-29T18:48:04;7.68;;;4.57;;
65049;SDS011;52090;51.224;-2.328;2023-01-29T18:51:46;7.30;;;4.05;;
65049;SDS011;52090;51.224;-2.328;2023-01-29T18:55:28;9.18;;;4.38;;
65049;SDS011;52090;51.224;-2.328;2023-01-29T18:59:10;14.07;;;4.57;;
65049;SDS011;52090;51.224;-2.328;2023-01-29T19:02:52;13.38;;;5.13;;
65049;SDS011;52090;51.224;-2.328;2023-01-29T19:06:34;7.75;;;4.00;;
65049;SDS011;52090;51.224;-2.328;2023-01-29T19:14:01;7.90;;;4.30;;
65049;SDS011;52090;51.224;-2.328;2023-01-29T19:17:46;5.97;;;3.00;;
65049;SDS011;52090;51.224;-2.328;2023-01-29T19:21:27;9.55;;;4.20;;
65049;SDS011;52090;51.224;-2.328;2023-01-29T19:25:12;5.63;;;2.97;;
65049;SDS011;52090;51.224;-2.328;2023-01-29T19:28:54;6.38;;;3.08;;
65049;SDS011;52090;51.224;-2.328;2023-01-29T19:32:35;7.40;;;3.58;;
65049;SDS011;52090;51.224;-2.328;2023-01-29T19:36:17;8.82;;;4.20;;
65049;SDS011;52090;51.224;-2.328;2023-01-29T19:39:59;6.38;;;4.05;;
65049;SDS011;52090;51.224;-2.328;2023-01-29T19:43:41;8.90;;;4.15;;
65049;SDS011;52090;51.224;-2.328;2023-01-29T19:47:23;6.90;;;4.90;;
65049;SDS011;52090;51.224;-2.328;2023-01-29T19:51:05;7.88;;;4.45;;
65049;SDS011;52090;51.224;-2.328;2023-01-29T19:54:49;12.30;;;6.55;;
65049;SDS011;52090;51.224;-2.328;2023-01-29T19:58:31;9.27;;;5.13;;
65049;SDS011;52090;51.224;-2.328;2023-01-29T20:02:13;8.07;;;4.20;;
65049;SDS011;52090;51.224;-2.328;2023-01-29T20:05:59;13.38;;;7.30;;
65049;SDS011;52090;51.224;-2.328;2023-01-29T20:09:44;49.22;;;27.40;;
65049;SDS011;52090;51.224;-2.328;2023-01-29T20:13:26;23.23;;;13.70;;
65049;SDS011;52090;51.224;-2.328;2023-01-29T20:17:08;15.40;;;9.75;;
65049;SDS011;52090;51.224;-2.328;2023-01-29T20:20:50;10.75;;;6.70;;
65049;SDS011;52090;51.224;-2.328;2023-01-29T20:24:33;23.58;;;11.55;;
65049;SDS011;52090;51.224;-2.328;2023-01-29T20:28:19;30.30;;;15.90;;
65049;SDS011;52090;51.224;-2.328;2023-01-29T20:32:01;34.22;;;14.05;;
65049;SDS011;52090;51.224;-2.328;2023-01-29T20:35:44;18.25;;;9.32;;
65049;SDS011;52090;51.224;-2.328;2023-01-29T20:39:25;17.65;;;7.63;;
65049;SDS011;52090;51.224;-2.328;2023-01-29T20:43:07;17.70;;;8.55;;
65049;SDS011;52090;51.224;-2.328;2023-01-29T20:46:49;21.40;;;10.77;;
65049;SDS011;52090;51.224;-2.328;2023-01-29T20:50:31;10.68;;;6.63;;
65049;SDS011;52090;51.224;-2.328;2023-01-29T20:54:14;17.30;;;7.65;;
65049;SDS011;52090;51.224;-2.328;2023-01-29T20:57:56;18.83;;;8.30;;
65049;SDS011;52090;51.224;-2.328;2023-01-29T21:01:47;16.63;;;7.45;;
65049;SDS011;52090;51.224;-2.328;2023-01-29T21:05:29;15.90;;;8.60;;
65049;SDS011;52090;51.224;-2.328;2023-01-29T21:09:11;20.63;;;9.85;;
65049;SDS011;52090;51.224;-2.328;2023-01-29T21:12:53;7.85;;;5.35;;
65049;SDS011;52090;51.224;-2.328;2023-01-29T21:16:35;19.17;;;10.52;;
65049;SDS011;52090;51.224;-2.328;2023-01-29T21:20:17;22.38;;;14.48;;
65049;SDS011;52090;51.224;-2.328;2023-01-29T21:24:00;11.80;;;5.33;;
65049;SDS011;52090;51.224;-2.328;2023-01-29T21:27:45;6.78;;;4.65;;
65049;SDS011;52090;51.224;-2.328;2023-01-29T21:31:26;6.78;;;5.50;;
65049;SDS011;52090;51.224;-2.328;2023-01-29T21:35:08;8.20;;;6.10;;
65049;SDS011;52090;51.224;-2.328;2023-01-29T21:38:51;8.27;;;5.40;;
65049;SDS011;52090;51.224;-2.328;2023-01-29T21:42:36;7.45;;;4.40;;
65049;SDS011;52090;51.224;-2.328;2023-01-29T21:46:37;7.40;;;4.28;;
65049;SDS011;52090;51.224;-2.328;2023-01-29T21:50:22;5.72;;;3.78;;
65049;SDS011;52090;51.224;-2.328;2023-01-29T21:54:07;8.30;;;4.00;;
65049;SDS011;52090;51.224;-2.328;2023-01-29T21:57:49;5.47;;;3.83;;
65049;SDS011;52090;51.224;-2.328;2023-01-29T22:01:30;6.85;;;3.83;;
65049;SDS011;52090;51.224;-2.328;2023-01-29T22:05:21;7.00;;;4.63;;
65049;SDS011;52090;51.224;-2.328;2023-01-29T22:09:05;6.70;;;3.67;;
65049;SDS011;52090;51.224;-2.328;2023-01-29T22:12:47;8.30;;;3.80;;
65049;SDS011;52090;51.224;-2.328;2023-01-29T22:16:29;6.13;;;3.05;;
65049;SDS011;52090;51.224;-2.328;2023-01-29T22:20:12;6.75;;;3.58;;
65049;SDS011;52090;51.224;-2.328;2023-01-29T22:23:54;7.95;;;4.32;;
65049;SDS011;52090;51.224;-2.328;2023-01-29T22:27:36;8.30;;;4.35;;
65049;SDS011;52090;51.224;-2.328;2023-01-29T22:31:18;8.45;;;5.40;;
65049;SDS011;52090;51.224;-2.328;2023-01-29T22:35:00;12.00;;;6.38;;
65049;SDS011;52090;51.224;-2.328;2023-01-29T22:38:42;8.93;;;6.00;;
65049;SDS011;52090;51.224;-2.328;2023-01-29T22:42:25;8.27;;;4.38;;
65049;SDS011;52090;51.224;-2.328;2023-01-29T22:46:11;10.55;;;5.10;;
65049;SDS011;52090;51.224;-2.328;2023-01-29T22:49:53;6.40;;;3.90;;
65049;SDS011;52090;51.224;-2.328;2023-01-29T22:53:39;9.40;;;3.63;;
65049;SDS011;52090;51.224;-2.328;2023-01-29T22:57:23;6.53;;;3.50;;
65049;SDS011;52090;51.224;-2.328;2023-01-29T23:01:08;9.50;;;3.85;;
65049;SDS011;52090;51.224;-2.328;2023-01-29T23:04:50;9.75;;;4.22;;
65049;SDS011;52090;51.224;-2.328;2023-01-29T23:08:32;5.85;;;3.42;;
65049;SDS011;52090;51.224;-2.328;2023-01-29T23:12:17;6.35;;;4.10;;
65049;SDS011;52090;51.224;-2.328;2023-01-29T23:16:01;6.65;;;3.15;;
65049;SDS011;52090;51.224;-2.328;2023-01-29T23:19:43;5.47;;;3.13;;
65049;SDS011;52090;51.224;-2.328;2023-01-29T23:23:26;5.43;;;3.03;;
65049;SDS011;52090;51.224;-2.328;2023-01-29T23:27:10;6.85;;;3.30;;
65049;SDS011;52090;51.224;-2.328;2023-01-29T23:30:55;5.13;;;3.47;;
65049;SDS011;52090;51.224;-2.328;2023-01-29T23:47:56;6.28;;;3.35;;
65049;SDS011;52090;51.224;-2.328;2023-01-29T23:51:38;5.55;;;3.08;;
65049;SDS011;52090;51.224;-2.328;2023-01-29T23:55:20;4.78;;;3.20;;
65049;SDS011;52090;51.224;-2.328;2023-01-29T23:59:03;6.68;;;3.50;;
